Jolyn — PJWG — position and weather

sailwx.info

Track history (hours):
 
Tides and Currents Weather Stations Pressure Air Temp Water Temp Dewpoint Dewpoint Depression Visibility Wind Speed Wind Dir Waves Ship Positions

Jolyn

Last reported at 2016-Aug-29 04:33 UTC. Time now 2016-Aug-29 05:23 UTC.
Position N 54°48' E 012°60'.

Length 89 m; draft 5 m.

Type: Cargo ship. MMSI: 306813000.

Date/timePositionNaut miles runAvg speedWind from/ knotsBaromVisibWave heightAir tempDewpointWater temp
2016-Aug-29 04:33N 54°48' E 012°60'2110.4
2016-Aug-29 02:33N 54°38' E 012°28'9 9.3
2016-Aug-29 01:33N 54°32' E 012°17'9 9.2
2016-Aug-29 00:33N 54°24' E 012°08'1010.3
2016-Aug-28 23:33N 54°24' E 011°50'1010.3
2016-Aug-28 22:33N 54°28' E 011°34'10 9.7
2016-Aug-28 21:33N 54°32' E 011°18'1110.7
2016-Aug-28 20:33N 54°34' E 011°00'1010.1
2016-Aug-28 19:33N 54°34' E 010°43'10 9.5
2016-Aug-28 18:33N 54°31' E 010°27'9 9.5
2016-Aug-28 17:33N 54°26' E 010°14'5 4.9
2016-Aug-28 16:33N 54°22' E 010°08'4 4.2
2016-Aug-28 15:33N 54°22' E 010°01'3 3.5
2016-Aug-28 14:33N 54°21' E 009°56'28 7.0
2016-Aug-28 10:33N 54°03' E 009°18'0 0.4
2016-Aug-28 09:33N 54°02' E 009°18'7 6.6
2016-Aug-28 08:33N 53°56' E 009°13'4 3.7
2016-Aug-28 07:33N 53°54' E 009°09'6 6.4
2016-Aug-28 06:33N 53°51' E 008°59'1111.4
2016-Aug-28 05:33N 53°55' E 008°41'1211.8
2016-Aug-28 04:33N 53°59' E 008°22'1211.7
2016-Aug-28 03:33N 53°59' E 008°02'1111.1
2016-Aug-28 02:33N 53°57' E 007°44'1010.2
2016-Aug-28 01:33N 53°54' E 007°27'9 9.3
2016-Aug-28 00:33N 53°52' E 007°12'9 8.7
2016-Aug-27 23:33N 53°50' E 006°57'8 8.4
2016-Aug-27 22:33N 53°48' E 006°44'8 8.1
2016-Aug-27 21:33N 53°46' E 006°30'8 7.8
2016-Aug-27 20:32N 53°44' E 006°17'8 8.1
2016-Aug-27 19:33N 53°42' E 006°04'8 8.2
2016-Aug-27 18:33N 53°39' E 005°51'8 8.4
2016-Aug-27 17:33N 53°37' E 005°38'9 8.6
2016-Aug-27 16:33N 53°34' E 005°24'9 9.1
2016-Aug-27 15:33N 53°31' E 005°10'10 9.6
2016-Aug-27 14:33N 53°27' E 004°55'1010.0
2016-Aug-27 13:33N 53°22' E 004°41'1110.8
2016-Aug-27 12:33N 53°12' E 004°33'1111.3
2016-Aug-27 11:33N 53°02' E 004°24'1111.0
2016-Aug-27 10:33N 52°52' E 004°16'1110.9
2016-Aug-27 09:33N 52°43' E 004°06'1110.6
2016-Aug-27 08:33N 52°34' E 003°57'10 9.7
2016-Aug-27 07:33N 52°25' E 003°50'10 9.7
2016-Aug-27 06:33N 52°18' E 003°39'18 9.0
2016-Aug-27 04:33N 52°03' E 003°23'9 9.0
2016-Aug-27 03:33N 51°54' E 003°21'8 8.4
2016-Aug-27 02:33N 51°46' E 003°16'18 9.1
2016-Aug-27 00:33N 51°30' E 003°28'9 8.7
2016-Aug-26 23:33N 51°28' E 003°42'0 0.0
2016-Aug-26 22:33N 51°28' E 003°42'0 0.0
2016-Aug-26 21:33N 51°28' E 003°42'0 0.0
2016-Aug-26 20:30N 51°28' E 003°42'0 0.0
2016-Aug-26 19:33N 51°28' E 003°42'0 0.0
2016-Aug-26 18:33N 51°28' E 003°42'0 0.0
2016-Aug-26 17:33N 51°28' E 003°42'0 0.0
2016-Aug-26 16:33N 51°28' E 003°42'0 0.0
2016-Aug-26 15:33N 51°28' E 003°42'0 0.0
2016-Aug-26 14:33N 51°28' E 003°42'0 0.0
2016-Aug-26 13:33N 51°28' E 003°42'0 0.0
2016-Aug-26 12:33N 51°28' E 003°42'0 0.0
2016-Aug-26 11:30N 51°28' E 003°42'0 0.0
2016-Aug-26 10:33N 51°28' E 003°42'0 0.0
2016-Aug-26 09:33N 51°28' E 003°42'0 0.0
2016-Aug-26 08:33N 51°28' E 003°42'0 0.0
2016-Aug-26 07:33N 51°28' E 003°42'0 0.0
2016-Aug-26 06:33N 51°28' E 003°42'0 0.0
2016-Aug-26 04:33N 51°28' E 003°42'0 0.0
2016-Aug-26 03:33N 51°28' E 003°42'0 0.0
2016-Aug-26 02:33N 51°28' E 003°42'0 0.0
2016-Aug-26 01:33N 51°28' E 003°42'0 0.0
2016-Aug-26 00:33N 51°28' E 003°42'0 0.0
2016-Aug-25 23:33N 51°28' E 003°42'0 0.0
2016-Aug-25 22:33N 51°28' E 003°42'0 0.0
2016-Aug-25 21:33N 51°28' E 003°42'0 0.0
2016-Aug-25 20:32N 51°28' E 003°42'0 0.0
2016-Aug-25 19:33N 51°28' E 003°42'0 0.0
2016-Aug-25 18:33N 51°28' E 003°42'0 0.0
2016-Aug-25 17:33N 51°28' E 003°42'0 0.0
2016-Aug-25 16:33N 51°28' E 003°42'0 0.0
2016-Aug-25 15:33N 51°28' E 003°42'0 0.0
2016-Aug-25 14:32N 51°28' E 003°42'0 0.0
2016-Aug-25 13:33N 51°28' E 003°42'0 0.0
2016-Aug-25 12:33N 51°28' E 003°42'0 0.0
2016-Aug-25 11:33N 51°28' E 003°42'0 0.0
2016-Aug-25 10:32N 51°28' E 003°42'0 0.0
2016-Aug-25 09:33N 51°28' E 003°42'0 0.0
2016-Aug-25 08:32N 51°28' E 003°42'0 0.0
2016-Aug-25 07:32N 51°28' E 003°42'0 0.0
2016-Aug-25 06:32N 51°28' E 003°42'0 0.0
2016-Aug-25 04:32N 51°28' E 003°42'0 0.0
2016-Aug-25 03:32N 51°28' E 003°42'0 0.0
2016-Aug-25 02:32N 51°28' E 003°42'0 0.0
2016-Aug-25 01:32N 51°28' E 003°42'0 0.0
2016-Aug-25 00:32N 51°28' E 003°42'0 0.0
2016-Aug-24 23:32N 51°28' E 003°42'0 0.0
2016-Aug-24 22:32N 51°28' E 003°42'0 0.0
2016-Aug-24 21:32N 51°28' E 003°42'0 0.0
2016-Aug-24 20:32N 51°28' E 003°42'0 0.0
2016-Aug-24 19:32N 51°28' E 003°42'0 0.0
2016-Aug-24 18:32N 51°28' E 003°42'0 0.0
2016-Aug-24 17:32N 51°28' E 003°42'0 0.0
2016-Aug-24 16:32N 51°28' E 003°42'0 0.0
2016-Aug-24 15:32N 51°28' E 003°42'0 0.0
2016-Aug-24 14:32N 51°28' E 003°42'0 0.0
2016-Aug-24 13:29N 51°28' E 003°42'0 0.0
2016-Aug-24 12:32N 51°28' E 003°42'0 0.0
2016-Aug-24 11:32N 51°28' E 003°42'0 0.0
2016-Aug-24 10:32N 51°28' E 003°42'0 0.0
2016-Aug-24 09:32N 51°28' E 003°42'0 0.0
2016-Aug-24 08:32N 51°28' E 003°42'0 0.0
2016-Aug-24 07:29N 51°28' E 003°42'0 0.0
2016-Aug-24 06:32N 51°28' E 003°42'7 3.4
2016-Aug-24 04:33N 51°28' E 003°31'1010.1
2016-Aug-24 03:33N 51°36' E 003°23'10 9.8
2016-Aug-24 02:33N 51°45' E 003°15'10 9.9
2016-Aug-24 01:33N 51°55' E 003°18'1010.2
2016-Aug-24 00:33N 52°05' E 003°21'1010.1
2016-Aug-23 23:33N 52°15' E 003°22'9 8.7
2016-Aug-23 22:30N 52°24' E 003°26'8 8.1
2016-Aug-23 21:32N 52°32' E 003°28'7 7.1
2016-Aug-23 20:31N 52°38' E 003°33'7 7.5
2016-Aug-23 19:33N 52°44' E 003°40'7 6.9
2016-Aug-23 18:31N 52°50' E 003°48'7 7.1
2016-Aug-23 17:33N 52°55' E 003°55'9 8.9
2016-Aug-23 16:33N 53°01' E 004°06'10 9.9
2016-Aug-23 15:33N 53°08' E 004°18'1110.0
2016-Aug-23 14:29N 53°17' E 004°28'28 9.5
2016-Aug-23 11:34N 53°34' E 005°05'9 9.0
2016-Aug-23 10:33N 53°37' E 005°19'9 8.7
2016-Aug-23 09:33N 53°39' E 005°33'9 8.9
2016-Aug-23 08:33N 53°43' E 005°47'10 9.7
2016-Aug-23 07:30N 53°46' E 006°03'1010.4
2016-Aug-23 06:32N 53°49' E 006°20'1010.7
2016-Aug-23 05:33N 53°52' E 006°37'1010.5
2016-Aug-23 04:33N 53°54' E 006°54'1010.0
2016-Aug-23 03:33N 53°57' E 007°10'9 9.3
2016-Aug-23 02:33N 53°59' E 007°26'9 8.6
2016-Aug-23 01:33N 54°01' E 007°40'8 8.5
2016-Aug-23 00:33N 54°01' E 007°55'8 8.2
2016-Aug-22 23:33N 54°01' E 008°08'8 7.8
2016-Aug-22 22:33N 53°60' E 008°22'10 9.6
2016-Aug-22 21:33N 53°57' E 008°37'1211.6
2016-Aug-22 20:33N 53°51' E 008°53'9 9.5
2016-Aug-22 19:33N 53°54' E 009°09'4 3.7
2016-Aug-22 18:33N 53°56' E 009°13'8 8.2
2016-Aug-22 17:33N 54°04' E 009°19'27 6.4
2016-Aug-22 13:23N 54°21' E 009°53'6 7.4
2016-Aug-22 12:33N 54°22' E 010°04'3 2.8
2016-Aug-22 11:33N 54°22' E 010°08'2 1.6
2016-Aug-22 10:33N 54°23' E 010°11'5 5.4
2016-Aug-22 09:33N 54°28' E 010°15'9 9.4
2016-Aug-22 08:33N 54°33' E 010°29'1010.0
2016-Aug-22 07:33N 54°35' E 010°45'1010.4
2016-Aug-22 06:33N 54°36' E 011°03'9 9.1
2016-Aug-22 05:33N 54°34' E 011°19'10 9.8
2016-Aug-22 04:33N 54°30' E 011°34'10 9.8
2016-Aug-22 03:33N 54°27' E 011°50'10 9.7
2016-Aug-22 02:33N 54°27' E 012°07'9 9.3
2016-Aug-22 01:33N 54°35' E 012°14'10 9.7
2016-Aug-22 00:33N 54°41' E 012°27'20 9.7
2016-Aug-21 22:31N 54°50' E 012°57'9 9.8
2016-Aug-21 21:33N 54°53' E 013°13'1010.1
2016-Aug-21 20:33N 54°57' E 013°29'10 9.8
2016-Aug-21 19:33N 55°01' E 013°45'1010.0
2016-Aug-21 18:33N 55°04' E 014°01'10 9.6
2016-Aug-21 17:33N 55°11' E 014°13'10 9.8
2016-Aug-21 16:33N 55°19' E 014°24'10 9.6
2016-Aug-21 15:33N 55°26' E 014°35'10 9.7
2016-Aug-21 14:33N 55°32' E 014°49'10 9.8
2016-Aug-21 13:33N 55°36' E 015°04'14 9.8
2016-Aug-21 12:08N 55°43' E 015°26'342 9.6
2016-Aug-20 00:30N 59°37' E 023°13'9 9.8
2016-Aug-19 23:33N 59°40' E 023°31'1010.2
2016-Aug-19 22:33N 59°42' E 023°50'11 9.8
2016-Aug-19 21:24N 59°45' E 024°12'11 9.8
2016-Aug-19 20:18N 59°48' E 024°33'8 9.9
2016-Aug-19 19:31N 59°49' E 024°48'56 4.2
2016-Aug-19 06:07N 59°32' E 026°33'  
Track history (hours):
 
Tides and Currents Weather Stations Pressure Air Temp Water Temp Dewpoint Dewpoint Depression Visibility Wind Speed Wind Dir Waves Ship Positions

Jolyn

Last reported at 2016-Aug-29 04:33 UTC. Time now 2016-Aug-29 05:23 UTC.
Position N 54°48' E 012°60'.

Length 89 m; draft 5 m.

Type: Cargo ship. MMSI: 306813000.

Date/timePositionNaut miles runAvg speedWind from/ knotsBaromVisibWave heightAir tempDewpointWater temp
2016-Aug-29 04:33N 54°48' E 012°60'2110.4
2016-Aug-29 02:33N 54°38' E 012°28'9 9.3
2016-Aug-29 01:33N 54°32' E 012°17'9 9.2
2016-Aug-29 00:33N 54°24' E 012°08'1010.3
2016-Aug-28 23:33N 54°24' E 011°50'1010.3
2016-Aug-28 22:33N 54°28' E 011°34'10 9.7
2016-Aug-28 21:33N 54°32' E 011°18'1110.7
2016-Aug-28 20:33N 54°34' E 011°00'1010.1
2016-Aug-28 19:33N 54°34' E 010°43'10 9.5
2016-Aug-28 18:33N 54°31' E 010°27'9 9.5
2016-Aug-28 17:33N 54°26' E 010°14'5 4.9
2016-Aug-28 16:33N 54°22' E 010°08'4 4.2
2016-Aug-28 15:33N 54°22' E 010°01'3 3.5
2016-Aug-28 14:33N 54°21' E 009°56'28 7.0
2016-Aug-28 10:33N 54°03' E 009°18'0 0.4
2016-Aug-28 09:33N 54°02' E 009°18'7 6.6
2016-Aug-28 08:33N 53°56' E 009°13'4 3.7
2016-Aug-28 07:33N 53°54' E 009°09'6 6.4
2016-Aug-28 06:33N 53°51' E 008°59'1111.4
2016-Aug-28 05:33N 53°55' E 008°41'1211.8
2016-Aug-28 04:33N 53°59' E 008°22'1211.7
2016-Aug-28 03:33N 53°59' E 008°02'1111.1
2016-Aug-28 02:33N 53°57' E 007°44'1010.2
2016-Aug-28 01:33N 53°54' E 007°27'9 9.3
2016-Aug-28 00:33N 53°52' E 007°12'9 8.7
2016-Aug-27 23:33N 53°50' E 006°57'8 8.4
2016-Aug-27 22:33N 53°48' E 006°44'8 8.1
2016-Aug-27 21:33N 53°46' E 006°30'8 7.8
2016-Aug-27 20:32N 53°44' E 006°17'8 8.1
2016-Aug-27 19:33N 53°42' E 006°04'8 8.2
2016-Aug-27 18:33N 53°39' E 005°51'8 8.4
2016-Aug-27 17:33N 53°37' E 005°38'9 8.6
2016-Aug-27 16:33N 53°34' E 005°24'9 9.1
2016-Aug-27 15:33N 53°31' E 005°10'10 9.6
2016-Aug-27 14:33N 53°27' E 004°55'1010.0
2016-Aug-27 13:33N 53°22' E 004°41'1110.8
2016-Aug-27 12:33N 53°12' E 004°33'1111.3
2016-Aug-27 11:33N 53°02' E 004°24'1111.0
2016-Aug-27 10:33N 52°52' E 004°16'1110.9
2016-Aug-27 09:33N 52°43' E 004°06'1110.6
2016-Aug-27 08:33N 52°34' E 003°57'10 9.7
2016-Aug-27 07:33N 52°25' E 003°50'10 9.7
2016-Aug-27 06:33N 52°18' E 003°39'18 9.0
2016-Aug-27 04:33N 52°03' E 003°23'9 9.0
2016-Aug-27 03:33N 51°54' E 003°21'8 8.4
2016-Aug-27 02:33N 51°46' E 003°16'18 9.1
2016-Aug-27 00:33N 51°30' E 003°28'9 8.7
2016-Aug-26 23:33N 51°28' E 003°42'0 0.0
2016-Aug-26 22:33N 51°28' E 003°42'0 0.0
2016-Aug-26 21:33N 51°28' E 003°42'0 0.0
2016-Aug-26 20:30N 51°28' E 003°42'0 0.0
2016-Aug-26 19:33N 51°28' E 003°42'0 0.0
2016-Aug-26 18:33N 51°28' E 003°42'0 0.0
2016-Aug-26 17:33N 51°28' E 003°42'0 0.0
2016-Aug-26 16:33N 51°28' E 003°42'0 0.0
2016-Aug-26 15:33N 51°28' E 003°42'0 0.0
2016-Aug-26 14:33N 51°28' E 003°42'0 0.0
2016-Aug-26 13:33N 51°28' E 003°42'0 0.0
2016-Aug-26 12:33N 51°28' E 003°42'0 0.0
2016-Aug-26 11:30N 51°28' E 003°42'0 0.0
2016-Aug-26 10:33N 51°28' E 003°42'0 0.0
2016-Aug-26 09:33N 51°28' E 003°42'0 0.0
2016-Aug-26 08:33N 51°28' E 003°42'0 0.0
2016-Aug-26 07:33N 51°28' E 003°42'0 0.0
2016-Aug-26 06:33N 51°28' E 003°42'0 0.0
2016-Aug-26 04:33N 51°28' E 003°42'0 0.0
2016-Aug-26 03:33N 51°28' E 003°42'0 0.0
2016-Aug-26 02:33N 51°28' E 003°42'0 0.0
2016-Aug-26 01:33N 51°28' E 003°42'0 0.0
2016-Aug-26 00:33N 51°28' E 003°42'0 0.0
2016-Aug-25 23:33N 51°28' E 003°42'0 0.0
2016-Aug-25 22:33N 51°28' E 003°42'0 0.0
2016-Aug-25 21:33N 51°28' E 003°42'0 0.0
2016-Aug-25 20:32N 51°28' E 003°42'0 0.0
2016-Aug-25 19:33N 51°28' E 003°42'0 0.0
2016-Aug-25 18:33N 51°28' E 003°42'0 0.0
2016-Aug-25 17:33N 51°28' E 003°42'0 0.0
2016-Aug-25 16:33N 51°28' E 003°42'0 0.0
2016-Aug-25 15:33N 51°28' E 003°42'0 0.0
2016-Aug-25 14:32N 51°28' E 003°42'0 0.0
2016-Aug-25 13:33N 51°28' E 003°42'0 0.0
2016-Aug-25 12:33N 51°28' E 003°42'0 0.0
2016-Aug-25 11:33N 51°28' E 003°42'0 0.0
2016-Aug-25 10:32N 51°28' E 003°42'0 0.0
2016-Aug-25 09:33N 51°28' E 003°42'0 0.0
2016-Aug-25 08:32N 51°28' E 003°42'0 0.0
2016-Aug-25 07:32N 51°28' E 003°42'0 0.0
2016-Aug-25 06:32N 51°28' E 003°42'0 0.0
2016-Aug-25 04:32N 51°28' E 003°42'0 0.0
2016-Aug-25 03:32N 51°28' E 003°42'0 0.0
2016-Aug-25 02:32N 51°28' E 003°42'0 0.0
2016-Aug-25 01:32N 51°28' E 003°42'0 0.0
2016-Aug-25 00:32N 51°28' E 003°42'0 0.0
2016-Aug-24 23:32N 51°28' E 003°42'0 0.0
2016-Aug-24 22:32N 51°28' E 003°42'0 0.0
2016-Aug-24 21:32N 51°28' E 003°42'0 0.0
2016-Aug-24 20:32N 51°28' E 003°42'0 0.0
2016-Aug-24 19:32N 51°28' E 003°42'0 0.0
2016-Aug-24 18:32N 51°28' E 003°42'0 0.0
2016-Aug-24 17:32N 51°28' E 003°42'0 0.0
2016-Aug-24 16:32N 51°28' E 003°42'0 0.0
2016-Aug-24 15:32N 51°28' E 003°42'0 0.0
2016-Aug-24 14:32N 51°28' E 003°42'0 0.0
2016-Aug-24 13:29N 51°28' E 003°42'0 0.0
2016-Aug-24 12:32N 51°28' E 003°42'0 0.0
2016-Aug-24 11:32N 51°28' E 003°42'0 0.0
2016-Aug-24 10:32N 51°28' E 003°42'0 0.0
2016-Aug-24 09:32N 51°28' E 003°42'0 0.0
2016-Aug-24 08:32N 51°28' E 003°42'0 0.0
2016-Aug-24 07:29N 51°28' E 003°42'0 0.0
2016-Aug-24 06:32N 51°28' E 003°42'7 3.4
2016-Aug-24 04:33N 51°28' E 003°31'1010.1
2016-Aug-24 03:33N 51°36' E 003°23'10 9.8
2016-Aug-24 02:33N 51°45' E 003°15'10 9.9
2016-Aug-24 01:33N 51°55' E 003°18'1010.2
2016-Aug-24 00:33N 52°05' E 003°21'1010.1
2016-Aug-23 23:33N 52°15' E 003°22'9 8.7
2016-Aug-23 22:30N 52°24' E 003°26'8 8.1
2016-Aug-23 21:32N 52°32' E 003°28'7 7.1
2016-Aug-23 20:31N 52°38' E 003°33'7 7.5
2016-Aug-23 19:33N 52°44' E 003°40'7 6.9
2016-Aug-23 18:31N 52°50' E 003°48'7 7.1
2016-Aug-23 17:33N 52°55' E 003°55'9 8.9
2016-Aug-23 16:33N 53°01' E 004°06'10 9.9
2016-Aug-23 15:33N 53°08' E 004°18'1110.0
2016-Aug-23 14:29N 53°17' E 004°28'28 9.5
2016-Aug-23 11:34N 53°34' E 005°05'9 9.0
2016-Aug-23 10:33N 53°37' E 005°19'9 8.7
2016-Aug-23 09:33N 53°39' E 005°33'9 8.9
2016-Aug-23 08:33N 53°43' E 005°47'10 9.7
2016-Aug-23 07:30N 53°46' E 006°03'1010.4
2016-Aug-23 06:32N 53°49' E 006°20'1010.7
2016-Aug-23 05:33N 53°52' E 006°37'1010.5
2016-Aug-23 04:33N 53°54' E 006°54'1010.0
2016-Aug-23 03:33N 53°57' E 007°10'9 9.3
2016-Aug-23 02:33N 53°59' E 007°26'9 8.6
2016-Aug-23 01:33N 54°01' E 007°40'8 8.5
2016-Aug-23 00:33N 54°01' E 007°55'8 8.2
2016-Aug-22 23:33N 54°01' E 008°08'8 7.8
2016-Aug-22 22:33N 53°60' E 008°22'10 9.6
2016-Aug-22 21:33N 53°57' E 008°37'1211.6
2016-Aug-22 20:33N 53°51' E 008°53'9 9.5
2016-Aug-22 19:33N 53°54' E 009°09'4 3.7
2016-Aug-22 18:33N 53°56' E 009°13'8 8.2
2016-Aug-22 17:33N 54°04' E 009°19'27 6.4
2016-Aug-22 13:23N 54°21' E 009°53'6 7.4
2016-Aug-22 12:33N 54°22' E 010°04'3 2.8
2016-Aug-22 11:33N 54°22' E 010°08'2 1.6
2016-Aug-22 10:33N 54°23' E 010°11'5 5.4
2016-Aug-22 09:33N 54°28' E 010°15'9 9.4
2016-Aug-22 08:33N 54°33' E 010°29'1010.0
2016-Aug-22 07:33N 54°35' E 010°45'1010.4
2016-Aug-22 06:33N 54°36' E 011°03'9 9.1
2016-Aug-22 05:33N 54°34' E 011°19'10 9.8
2016-Aug-22 04:33N 54°30' E 011°34'10 9.8
2016-Aug-22 03:33N 54°27' E 011°50'10 9.7
2016-Aug-22 02:33N 54°27' E 012°07'9 9.3
2016-Aug-22 01:33N 54°35' E 012°14'10 9.7
2016-Aug-22 00:33N 54°41' E 012°27'20 9.7
2016-Aug-21 22:31N 54°50' E 012°57'9 9.8
2016-Aug-21 21:33N 54°53' E 013°13'1010.1
2016-Aug-21 20:33N 54°57' E 013°29'10 9.8
2016-Aug-21 19:33N 55°01' E 013°45'1010.0
2016-Aug-21 18:33N 55°04' E 014°01'10 9.6
2016-Aug-21 17:33N 55°11' E 014°13'10 9.8
2016-Aug-21 16:33N 55°19' E 014°24'10 9.6
2016-Aug-21 15:33N 55°26' E 014°35'10 9.7
2016-Aug-21 14:33N 55°32' E 014°49'10 9.8
2016-Aug-21 13:33N 55°36' E 015°04'14 9.8
2016-Aug-21 12:08N 55°43' E 015°26'342 9.6
2016-Aug-20 00:30N 59°37' E 023°13'9 9.8
2016-Aug-19 23:33N 59°40' E 023°31'1010.2
2016-Aug-19 22:33N 59°42' E 023°50'11 9.8
2016-Aug-19 21:24N 59°45' E 024°12'11 9.8
2016-Aug-19 20:18N 59°48' E 024°33'8 9.9
2016-Aug-19 19:31N 59°49' E 024°48'56 4.2
2016-Aug-19 06:07N 59°32' E 026°33'  

Dump ship's entire track history